Time;durP1;ratioP1;P1;durP2;ratioP2;P2;SDS_P1;SDS_P2;PMS_P1;PMS_P2;Temp;Humidity;BMP_temperature;BMP_pressure;BME280_temperature;BME280_humidity;BME280_pressure;Samples;Min_cycle;Max_cycle;Signal;HPM_P1;HPM_P2
2024/01/19 00:02:07;;;;;;;;;;;;;;;21.45;27.19;101172.13;5036897;28;19917;-74
2024/01/19 00:04:32;;;;;;;;;;;;;;;21.42;27.04;101172.50;5039173;28;19981;-74
2024/01/19 00:06:57;;;;;;;;;;;;;;;21.39;27.00;101172.84;5034580;28;19929;-74
2024/01/19 00:09:23;;;;;;;;;;;;;;;21.36;27.20;101170.50;5041489;28;19983;-74
2024/01/19 00:11:48;;;;;;;;;;;;;;;21.34;27.14;101169.84;5043987;28;20294;-74
2024/01/19 00:14:13;;;;;;;;;;;;;;;21.30;27.01;101172.03;5035010;28;20429;-74
2024/01/19 00:16:41;;;;;;;;;;;;;;;21.29;27.20;101180.31;5046806;28;20456;-74
2024/01/19 00:19:06;;;;;;;;;;;;;;;21.27;26.93;101182.34;5048850;28;19912;-74
2024/01/19 00:21:31;;;;;;;;;;;;;;;21.25;27.06;101173.59;5047557;28;20012;-74
2024/01/19 00:23:56;;;;;;;;;;;;;;;21.22;27.06;101194.53;5039024;28;20312;-74
2024/01/19 00:26:22;;;;;;;;;;;;;;;21.20;27.08;101179.53;5036316;28;19913;-74
2024/01/19 00:28:48;;;;;;;;;;;;;;;21.18;27.27;101181.56;5037032;28;19917;-74
2024/01/19 00:31:14;;;;;;;;;;;;;;;21.17;27.29;101185.28;5040026;28;20316;-75
2024/01/19 00:33:39;;;;;;;;;;;;;;;21.15;26.98;101181.91;5042025;28;19917;-74
2024/01/19 00:36:04;;;;;;;;;;;;;;;21.13;27.03;101183.94;5038927;28;19920;-74
2024/01/19 00:38:29;;;;;;;;;;;;;;;21.11;27.07;101188.69;5040737;28;19913;-74
2024/01/19 00:40:54;;;;;;;;;;;;;;;21.09;27.17;101188.88;5037536;28;19913;-74
2024/01/19 00:43:20;;;;;;;;;;;;;;;21.07;26.96;101196.31;5034130;28;19928;-74
2024/01/19 00:45:45;;;;;;;;;;;;;;;21.04;27.18;101198.53;5039696;28;19913;-74
2024/01/19 00:48:10;;;;;;;;;;;;;;;21.03;27.04;101202.25;5037524;28;19916;-74
2024/01/19 00:50:35;;;;;;;;;;;;;;;21.01;27.06;101202.41;5038782;28;20285;-74
2024/01/19 00:53:00;;;;;;;;;;;;;;;21.00;27.04;101197.19;5034411;28;19917;-74
2024/01/19 00:55:26;;;;;;;;;;;;;;;20.99;27.01;101200.94;5036682;28;19914;-74
2024/01/19 00:57:51;;;;;;;;;;;;;;;20.97;27.28;101209.19;5034719;28;19913;-74
2024/01/19 01:00:16;;;;;;;;;;;;;;;20.96;27.03;101210.22;5036340;28;19921;-74
2024/01/19 01:02:41;;;;;;;;;;;;;;;20.95;27.10;101211.25;5039415;28;19968;-74
2024/01/19 01:05:07;;;;;;;;;;;;;;;20.97;27.22;101206.47;5051168;28;19917;-74
2024/01/19 01:07:32;;;;;;;;;;;;;;;20.97;27.17;101214.59;5034834;28;19936;-74
2024/01/19 01:09:57;;;;;;;;;;;;;;;20.96;27.09;101221.03;5038892;28;19967;-74
2024/01/19 01:12:22;;;;;;;;;;;;;;;20.96;27.21;101219.16;5035951;28;19959;-74
2024/01/19 01:14:47;;;;;;;;;;;;;;;20.95;26.78;101233.69;5034675;28;19924;-74
2024/01/19 01:17:13;;;;;;;;;;;;;;;20.92;26.94;101228.63;5034555;28;20456;-74
2024/01/19 01:19:38;;;;;;;;;;;;;;;20.92;27.15;101230.50;5032509;28;19917;-74
2024/01/19 01:22:05;;;;;;;;;;;;;;;20.90;27.24;101233.38;5036445;28;20338;-74
2024/01/19 01:24:30;;;;;;;;;;;;;;;20.90;26.98;101236.09;5039165;28;19917;-74
2024/01/19 01:26:55;;;;;;;;;;;;;;;20.91;27.22;101237.78;5038579;28;19917;-74
2024/01/19 01:29:21;;;;;;;;;;;;;;;20.92;26.92;101241.31;5050183;28;19921;-74
2024/01/19 01:31:46;;;;;;;;;;;;;;;20.91;27.03;101239.63;5042292;28;19926;-74
2024/01/19 01:34:11;;;;;;;;;;;;;;;20.91;26.83;101245.88;5039362;28;19913;-73
2024/01/19 01:36:36;;;;;;;;;;;;;;;20.94;27.21;101242.84;5038076;28;19949;-74
2024/01/19 01:39:02;;;;;;;;;;;;;;;20.96;26.85;101239.94;5034885;28;19921;-74
2024/01/19 01:41:27;;;;;;;;;;;;;;;20.99;27.13;101241.47;5032969;28;19917;-74
2024/01/19 01:43:52;;;;;;;;;;;;;;;21.00;26.98;101248.56;5038119;28;19919;-74
2024/01/19 01:46:17;;;;;;;;;;;;;;;21.00;26.90;101256.66;5035267;28;20529;-74
2024/01/19 01:48:43;;;;;;;;;;;;;;;21.00;26.79;101243.16;5039456;28;19913;-74
2024/01/19 01:51:08;;;;;;;;;;;;;;;21.01;26.75;101239.41;5045330;28;19948;-74
2024/01/19 01:53:33;;;;;;;;;;;;;;;21.01;26.71;101244.81;5032978;28;19917;-74
2024/01/19 01:55:59;;;;;;;;;;;;;;;21.03;27.03;101240.09;5031468;28;19925;-74
2024/01/19 01:58:24;;;;;;;;;;;;;;;21.03;26.70;101246.34;5036782;28;19917;-74
2024/01/19 02:00:49;;;;;;;;;;;;;;;21.04;26.62;101249.91;5050984;28;19913;-74
2024/01/19 02:03:14;;;;;;;;;;;;;;;21.04;26.84;101250.72;5041080;28;19936;-74
2024/01/19 02:05:40;;;;;;;;;;;;;;;21.05;26.81;101248.88;5031338;28;19921;-74
2024/01/19 02:08:05;;;;;;;;;;;;;;;21.08;26.92;101264.75;5033892;28;20414;-73
2024/01/19 02:10:31;;;;;;;;;;;;;;;21.06;26.68;101262.19;5033599;28;19921;-74
2024/01/19 02:12:56;;;;;;;;;;;;;;;21.08;26.90;101264.75;5037298;28;19917;-74
2024/01/19 02:15:22;;;;;;;;;;;;;;;21.08;26.79;101265.59;5035792;28;19967;-74
2024/01/19 02:17:51;;;;;;;;;;;;;;;21.07;26.88;101263.03;5048574;28;19925;-74
2024/01/19 02:20:17;;;;;;;;;;;;;;;21.07;26.80;101263.91;5037051;28;19935;-74
2024/01/19 02:22:42;;;;;;;;;;;;;;;21.07;26.84;101273.84;5030664;28;19941;-74
2024/01/19 02:25:08;;;;;;;;;;;;;;;21.08;26.90;101283.69;5041141;28;19913;-74
2024/01/19 02:27:33;;;;;;;;;;;;;;;21.06;26.84;101280.28;5046295;28;20436;-74
2024/01/19 02:29:58;;;;;;;;;;;;;;;21.05;26.74;101279.44;5032589;28;19937;-74
2024/01/19 02:32:23;;;;;;;;;;;;;;;21.05;26.78;101273.19;5033050;28;19917;-74
2024/01/19 02:34:48;;;;;;;;;;;;;;;21.06;26.98;101281.13;5034884;28;19948;-74
2024/01/19 02:37:13;;;;;;;;;;;;;;;21.05;26.75;101284.84;5033377;28;19956;-74
2024/01/19 02:39:39;;;;;;;;;;;;;;;21.07;26.70;101295.47;5038072;28;19917;-74
2024/01/19 02:42:04;;;;;;;;;;;;;;;21.06;26.95;101293.81;5047652;28;19914;-73
2024/01/19 02:44:29;;;;;;;;;;;;;;;21.07;26.88;101295.47;5037947;28;19939;-74
2024/01/19 02:46:54;;;;;;;;;;;;;;;21.08;26.70;101299.91;5036256;28;19920;-74
2024/01/19 02:49:19;;;;;;;;;;;;;;;21.10;26.58;101298.69;5033489;28;19921;-74
2024/01/19 02:51:45;;;;;;;;;;;;;;;21.10;26.57;101303.25;5033642;28;19921;-74
2024/01/19 02:54:10;;;;;;;;;;;;;;;21.09;26.85;101302.41;5034658;28;19964;-74
2024/01/19 02:56:35;;;;;;;;;;;;;;;21.10;26.71;101301.41;5026465;28;19913;-74
2024/01/19 02:59:00;;;;;;;;;;;;;;;21.11;26.68;101303.09;5035822;28;19961;-74
2024/01/19 03:01:25;;;;;;;;;;;;;;;21.11;26.80;101303.09;5045427;28;20445;-74
2024/01/19 03:03:50;;;;;;;;;;;;;;;21.11;26.81;101304.94;5040549;28;19914;-74
2024/01/19 03:06:16;;;;;;;;;;;;;;;21.12;26.51;101298.53;5032190;28;19921;-74
2024/01/19 03:08:41;;;;;;;;;;;;;;;21.14;26.91;101310.00;5029617;28;19913;-74
2024/01/19 03:11:06;;;;;;;;;;;;;;;21.13;26.74;101309.16;5037992;28;19970;-74
2024/01/19 03:13:31;;;;;;;;;;;;;;;21.14;26.55;101305.44;5049886;28;19912;-74
2024/01/19 03:15:58;;;;;;;;;;;;;;;21.15;26.72;101317.09;5048201;28;20620;-74
2024/01/19 03:18:23;;;;;;;;;;;;;;;21.15;26.55;101314.38;5044469;28;19956;-74
2024/01/19 03:20:48;;;;;;;;;;;;;;;21.18;26.61;101324.88;5035371;28;19914;-74
2024/01/19 03:23:13;;;;;;;;;;;;;;;21.17;26.83;101329.44;5036708;28;19920;-75
2024/01/19 03:25:38;;;;;;;;;;;;;;;21.19;26.80;101327.38;5034931;28;19976;-74
2024/01/19 03:28:03;;;;;;;;;;;;;;;21.20;26.76;101331.81;5039958;28;19921;-74
2024/01/19 03:30:29;;;;;;;;;;;;;;;21.21;26.59;101325.38;5046762;28;19917;-74
2024/01/19 03:32:54;;;;;;;;;;;;;;;21.21;26.73;101330.78;5037125;28;19913;-74
2024/01/19 03:35:19;;;;;;;;;;;;;;;21.22;26.78;101326.22;5040169;28;19937;-74
2024/01/19 03:37:44;;;;;;;;;;;;;;;21.24;26.74;101329.59;5049796;28;19913;-73
2024/01/19 03:40:10;;;;;;;;;;;;;;;21.25;26.75;101338.56;5043787;28;20085;-74
2024/01/19 03:42:35;;;;;;;;;;;;;;;21.27;26.38;101333.81;5041548;28;19916;-74
2024/01/19 03:45:00;;;;;;;;;;;;;;;21.27;26.43;101339.22;5038456;28;19917;-74
2024/01/19 03:47:25;;;;;;;;;;;;;;;21.28;26.64;101330.94;5035568;28;19917;-74
2024/01/19 03:49:50;;;;;;;;;;;;;;;21.29;26.48;101335.31;5035485;28;19988;-74
2024/01/19 03:52:16;;;;;;;;;;;;;;;21.30;26.75;101338.88;5045727;28;20019;-74
2024/01/19 03:54:41;;;;;;;;;;;;;;;21.34;26.44;101353.75;5043098;28;19978;-74
2024/01/19 03:57:07;;;;;;;;;;;;;;;21.33;26.61;101379.13;5040773;28;19909;-74
2024/01/19 03:59:32;;;;;;;;;;;;;;;21.34;26.28;101370.00;5040363;28;19913;-74
2024/01/19 04:01:58;;;;;;;;;;;;;;;21.34;26.44;101376.25;5034707;28;19920;-75
2024/01/19 04:04:23;;;;;;;;;;;;;;;21.34;26.23;101381.66;5035436;28;19917;-74
2024/01/19 04:06:48;;;;;;;;;;;;;;;21.34;26.44;101384.34;5045628;28;20381;-75
2024/01/19 04:09:17;;;;;;;;;;;;;;;21.34;26.17;101380.81;5043228;28;19979;-74
2024/01/19 04:11:42;;;;;;;;;;;;;;;21.34;26.20;101383.50;5039909;28;19967;-74
2024/01/19 04:14:07;;;;;;;;;;;;;;;21.33;26.20;101388.09;5038293;28;19914;-74
2024/01/19 04:16:32;;;;;;;;;;;;;;;21.34;26.35;101395.19;5034877;28;19913;-74
2024/01/19 04:18:58;;;;;;;;;;;;;;;21.35;26.17;101394.16;5033839;28;19913;-74
2024/01/19 04:21:23;;;;;;;;;;;;;;;21.37;26.24;101394.84;5040410;28;20234;-74
2024/01/19 04:23:48;;;;;;;;;;;;;;;21.30;26.11;101393.81;5052404;28;19917;-73
2024/01/19 04:26:13;;;;;;;;;;;;;;;21.39;26.30;101414.44;5046417;28;20051;-74
2024/01/19 04:28:41;;;;;;;;;;;;;;;21.40;26.39;101418.81;5042522;28;19920;-74
2024/01/19 04:31:06;;;;;;;;;;;;;;;21.43;26.26;101431.16;5037731;28;19921;-74
2024/01/19 04:33:32;;;;;;;;;;;;;;;21.45;26.07;101434.53;5040109;28;19928;-74
2024/01/19 04:35:57;;;;;;;;;;;;;;;21.45;26.37;101438.09;5033080;28;19921;-74
2024/01/19 04:38:22;;;;;;;;;;;;;;;21.48;26.34;101444.16;5033296;28;19952;-74
2024/01/19 04:40:47;;;;;;;;;;;;;;;21.48;26.32;101441.47;5038039;28;19913;-73
2024/01/19 04:43:12;;;;;;;;;;;;;;;21.51;26.21;101449.25;5041939;28;19917;-74
2024/01/19 04:45:38;;;;;;;;;;;;;;;21.52;26.17;101440.94;5035755;28;19925;-74
2024/01/19 04:48:03;;;;;;;;;;;;;;;21.52;26.14;101457.19;5042566;28;19913;-73
2024/01/19 04:50:28;;;;;;;;;;;;;;;21.53;26.09;101463.44;5047044;28;20371;-73
2024/01/19 04:52:53;;;;;;;;;;;;;;;21.54;26.05;101465.16;5035925;28;19945;-74
2024/01/19 04:55:18;;;;;;;;;;;;;;;21.55;25.95;101466.81;5034259;28;19913;-74
2024/01/19 04:57:44;;;;;;;;;;;;;;;21.54;26.13;101468.69;5038982;28;19920;-74
2024/01/19 05:00:09;;;;;;;;;;;;;;;21.53;26.08;101458.84;5037758;28;19913;-74
2024/01/19 05:02:35;;;;;;;;;;;;;;;21.48;25.95;101452.28;5037876;28;20550;-74
2024/01/19 05:05:00;;;;;;;;;;;;;;;21.56;26.06;101465.81;5034892;28;19924;-74
2024/01/19 05:07:28;;;;;;;;;;;;;;;21.56;25.91;101472.06;5039004;28;20407;-74
2024/01/19 05:09:53;;;;;;;;;;;;;;;21.56;26.15;101488.28;5043254;28;19913;-74
2024/01/19 05:12:18;;;;;;;;;;;;;;;21.55;26.23;101497.44;5036452;28;19913;-74
2024/01/19 05:14:45;;;;;;;;;;;;;;;21.56;26.13;101488.28;5031247;28;19925;-73
2024/01/19 05:17:11;;;;;;;;;;;;;;;21.53;26.19;101496.75;5038054;28;19956;-73
2024/01/19 05:19:36;;;;;;;;;;;;;;;21.52;25.94;101502.34;5049479;28;19917;-73
2024/01/19 05:22:01;;;;;;;;;;;;;;;21.49;26.25;101492.69;5053041;28;19963;-72
2024/01/19 05:24:26;;;;;;;;;;;;;;;21.46;26.03;101493.91;5046197;28;19925;-72
2024/01/19 05:26:51;;;;;;;;;;;;;;;21.45;26.25;101491.34;5035563;28;19914;-74
2024/01/19 05:29:17;;;;;;;;;;;;;;;21.44;26.34;101490.50;5029380;28;19975;-74
2024/01/19 05:31:42;;;;;;;;;;;;;;;21.45;26.26;101485.94;5032494;28;19917;-73
2024/01/19 05:34:07;;;;;;;;;;;;;;;21.44;26.42;101493.19;5039817;28;20321;-73
2024/01/19 05:36:32;;;;;;;;;;;;;;;21.43;26.47;101488.81;5048237;28;19993;-75
2024/01/19 05:38:57;;;;;;;;;;;;;;;21.43;26.17;101494.22;5043028;28;19917;-72
2024/01/19 05:41:22;;;;;;;;;;;;;;;21.44;26.40;101497.78;5031725;28;19913;-74
2024/01/19 05:43:48;;;;;;;;;;;;;;;21.44;26.27;101497.78;5037804;28;19913;-74
2024/01/19 05:46:13;;;;;;;;;;;;;;;21.46;26.51;101502.00;5039843;28;19917;-72
2024/01/19 05:48:38;;;;;;;;;;;;;;;21.49;26.57;101518.91;5040095;28;19968;-74
2024/01/19 05:51:04;;;;;;;;;;;;;;;21.50;26.55;101520.63;5032806;28;20024;-73
2024/01/19 05:53:29;;;;;;;;;;;;;;;21.50;26.57;101526.88;5034798;28;19952;-72
2024/01/19 05:55:54;;;;;;;;;;;;;;;21.51;26.68;101533.13;5035358;28;19913;-73
2024/01/19 05:58:19;;;;;;;;;;;;;;;21.51;26.73;101538.53;5031421;28;19936;-73
2024/01/19 06:00:45;;;;;;;;;;;;;;;21.51;26.61;101530.41;5046675;28;19913;-72
2024/01/19 06:03:10;;;;;;;;;;;;;;;21.51;26.78;101531.25;5040768;28;19913;-72
2024/01/19 06:05:35;;;;;;;;;;;;;;;21.50;26.68;101545.81;5031611;28;20067;-72
2024/01/19 06:08:01;;;;;;;;;;;;;;;21.53;26.61;101550.00;5037044;28;19928;-73
2024/01/19 06:10:26;;;;;;;;;;;;;;;21.54;26.81;101557.13;5035147;28;19917;-74
2024/01/19 06:12:51;;;;;;;;;;;;;;;21.54;26.68;101563.41;5035611;28;19917;-72
2024/01/19 06:15:16;;;;;;;;;;;;;;;21.55;26.91;101561.53;5033858;28;19929;-73
2024/01/19 06:17:41;;;;;;;;;;;;;;;21.56;27.01;101555.94;5033970;28;19925;-72
2024/01/19 06:20:07;;;;;;;;;;;;;;;21.57;26.96;101557.63;5041675;28;19929;-73
2024/01/19 06:22:32;;;;;;;;;;;;;;;21.57;26.89;101565.72;5039687;28;19924;-73
2024/01/19 06:24:58;;;;;;;;;;;;;;;21.57;26.90;101573.84;5038981;28;19933;-73
2024/01/19 06:27:23;;;;;;;;;;;;;;;21.57;26.66;101578.41;5032444;28;19917;-71
2024/01/19 06:29:48;;;;;;;;;;;;;;;21.58;26.74;101585.53;5038751;28;20373;-74
2024/01/19 06:32:13;;;;;;;;;;;;;;;21.59;26.78;101585.38;5051938;28;19929;-73
2024/01/19 06:34:41;;;;;;;;;;;;;;;21.59;26.79;101596.19;5047069;28;20366;-73
2024/01/19 06:37:06;;;;;;;;;;;;;;;21.59;26.72;101595.34;5043241;28;19963;-73
2024/01/19 06:39:31;;;;;;;;;;;;;;;21.57;26.81;101602.78;5038806;28;19917;-73
2024/01/19 06:41:57;;;;;;;;;;;;;;;21.57;26.78;101613.59;5031730;28;20912;-75
2024/01/19 06:44:22;;;;;;;;;;;;;;;21.58;26.77;101609.88;5033383;28;19918;-74
2024/01/19 06:46:47;;;;;;;;;;;;;;;21.15;26.74;101539.69;5038153;28;20389;-74
2024/01/19 06:49:13;;;;;;;;;;;;;;;21.59;27.03;101617.00;5042691;28;19917;-74
2024/01/19 06:51:38;;;;;;;;;;;;;;;21.60;26.89;101627.66;5039008;28;19945;-75
2024/01/19 06:54:03;;;;;;;;;;;;;;;21.59;26.88;101636.78;5042889;28;20286;-73
2024/01/19 06:56:28;;;;;;;;;;;;;;;21.62;26.71;101631.03;5038854;28;19916;-74
2024/01/19 06:58:54;;;;;;;;;;;;;;;21.64;26.69;101638.97;5041555;28;19916;-74
2024/01/19 07:01:19;;;;;;;;;;;;;;;21.63;27.05;101643.56;5038517;28;19940;-74
2024/01/19 07:03:45;;;;;;;;;;;;;;;21.64;26.79;101647.09;5036108;28;19940;-74
2024/01/19 07:06:10;;;;;;;;;;;;;;;21.65;27.07;101651.50;5040682;28;19984;-74
2024/01/19 07:08:36;;;;;;;;;;;;;;;21.64;26.95;101656.06;5035765;28;19973;-75
2024/01/19 07:11:01;;;;;;;;;;;;;;;21.64;27.03;101657.94;5036170;28;19917;-75
2024/01/19 07:13:26;;;;;;;;;;;;;;;21.67;27.00;101663.00;5043420;28;19920;-75
2024/01/19 07:15:51;;;;;;;;;;;;;;;21.65;27.01;101665.03;5041081;28;19913;-74
2024/01/19 07:18:16;;;;;;;;;;;;;;;21.64;26.86;101661.47;5044640;28;19920;-74
2024/01/19 07:20:42;;;;;;;;;;;;;;;21.64;27.07;101660.63;5038367;28;19933;-75
2024/01/19 07:23:08;;;;;;;;;;;;;;;21.63;27.19;101659.78;5041681;28;19917;-74
2024/01/19 07:25:33;;;;;;;;;;;;;;;21.64;27.20;101664.19;5041896;28;20006;-75
2024/01/19 07:27:58;;;;;;;;;;;;;;;21.64;27.15;101663.34;5048902;28;19917;-76
2024/01/19 07:30:23;;;;;;;;;;;;;;;21.64;27.18;101666.88;5047530;28;19921;-76
2024/01/19 07:32:49;;;;;;;;;;;;;;;21.60;27.20;101670.94;5036424;28;19913;-77
2024/01/19 07:35:14;;;;;;;;;;;;;;;21.61;27.24;101674.50;5035927;28;19940;-77
2024/01/19 07:37:39;;;;;;;;;;;;;;;21.59;27.07;101685.50;5033768;28;20410;-75
2024/01/19 07:40:05;;;;;;;;;;;;;;;21.60;26.96;101697.16;5041912;28;19920;-76
2024/01/19 07:42:30;;;;;;;;;;;;;;;21.59;27.19;101685.50;5042632;28;19971;-77
2024/01/19 07:44:55;;;;;;;;;;;;;;;21.62;27.02;101685.16;5050182;28;19917;-76
2024/01/19 07:47:20;;;;;;;;;;;;;;;21.62;27.08;101678.88;5043132;28;20299;-75
2024/01/19 07:49:45;;;;;;;;;;;;;;;21.64;26.94;101683.13;5040103;28;19945;-76
2024/01/19 07:52:11;;;;;;;;;;;;;;;21.63;26.65;101680.59;5035342;28;19924;-75
2024/01/19 07:54:36;;;;;;;;;;;;;;;21.63;27.00;101696.84;5040207;28;19920;-76
2024/01/19 07:57:01;;;;;;;;;;;;;;;21.62;26.75;101698.69;5035520;28;19914;-75
2024/01/19 07:59:26;;;;;;;;;;;;;;;21.64;26.81;101695.81;5039647;28;19924;-75
2024/01/19 08:01:51;;;;;;;;;;;;;;;21.68;26.70;101708.00;5033586;28;19972;-75
2024/01/19 08:04:16;;;;;;;;;;;;;;;21.67;26.63;101711.72;5040864;28;19984;-73
2024/01/19 08:06:42;;;;;;;;;;;;;;;21.69;26.63;101712.38;5038853;28;20325;-74
2024/01/19 08:09:08;;;;;;;;;;;;;;;21.69;26.52;101699.69;5046391;28;19928;-73
2024/01/19 08:11:33;;;;;;;;;;;;;;;21.71;26.45;101713.09;5037030;28;19939;-75
2024/01/19 08:13:58;;;;;;;;;;;;;;;21.74;26.48;101717.28;5032795;28;19929;-75
2024/01/19 08:16:23;;;;;;;;;;;;;;;21.72;26.67;101725.59;5043613;28;20369;-75
2024/01/19 08:18:48;;;;;;;;;;;;;;;21.74;26.50;101726.25;5046005;28;19924;-75
2024/01/19 08:21:13;;;;;;;;;;;;;;;21.34;26.44;101662.97;5032885;28;19920;-73
2024/01/19 08:23:39;;;;;;;;;;;;;;;21.74;26.43;101734.38;5036572;28;19924;-73
2024/01/19 08:26:07;;;;;;;;;;;;;;;21.75;26.71;101737.94;5037156;28;19924;-74
2024/01/19 08:28:32;;;;;;;;;;;;;;;21.76;26.44;101742.34;5041308;28;19939;-75
2024/01/19 08:30:57;;;;;;;;;;;;;;;21.74;26.44;101742.50;5040785;28;19930;-76
2024/01/19 08:33:22;;;;;;;;;;;;;;;21.73;26.48;101753.50;5033485;28;19920;-74
2024/01/19 08:35:48;;;;;;;;;;;;;;;21.74;26.73;101749.78;5032729;28;19917;-75
2024/01/19 08:38:13;;;;;;;;;;;;;;;21.72;26.72;101755.38;5046127;28;19924;-75
2024/01/19 08:40:38;;;;;;;;;;;;;;;21.73;26.66;101764.34;5052414;28;19966;-76
2024/01/19 08:43:04;;;;;;;;;;;;;;;21.73;26.54;101762.47;5042143;28;19955;-75
2024/01/19 08:45:29;;;;;;;;;;;;;;;21.72;26.50;101766.19;5045962;28;19920;-75
2024/01/19 08:47:57;;;;;;;;;;;;;;;21.73;26.45;101772.44;5029712;28;20329;-75
2024/01/19 08:50:23;;;;;;;;;;;;;;;21.73;26.57;101767.03;5038157;28;19972;-74
2024/01/19 08:52:48;;;;;;;;;;;;;;;21.72;26.76;101774.31;5039283;28;19924;-75
2024/01/19 08:55:13;;;;;;;;;;;;;;;21.71;26.78;101772.63;5042802;28;19918;-75
2024/01/19 08:57:38;;;;;;;;;;;;;;;21.70;26.87;101777.16;5041637;28;20048;-75
2024/01/19 09:00:04;;;;;;;;;;;;;;;21.70;26.76;101779.88;5035086;28;20282;-74
2024/01/19 09:02:30;;;;;;;;;;;;;;;21.72;26.61;101771.59;5038046;28;19966;-75
2024/01/19 09:04:55;;;;;;;;;;;;;;;21.73;26.54;101770.59;5032252;28;20008;-75
2024/01/19 09:07:20;;;;;;;;;;;;;;;21.74;26.57;101764.16;5040068;28;20495;-75
2024/01/19 09:09:45;;;;;;;;;;;;;;;21.76;26.58;101775.69;5036357;28;19913;-75
2024/01/19 09:12:10;;;;;;;;;;;;;;;21.77;26.72;101787.34;5031708;28;19984;-74
2024/01/19 09:14:36;;;;;;;;;;;;;;;21.76;26.83;101780.25;5032967;28;19924;-74
2024/01/19 09:17:01;;;;;;;;;;;;;;;21.77;26.77;101787.34;5032567;28;19917;-72
2024/01/19 09:19:26;;;;;;;;;;;;;;;21.77;26.83;101779.22;5033781;28;19927;-72
2024/01/19 09:21:52;;;;;;;;;;;;;;;21.78;26.83;101783.63;5043467;28;19917;-73
2024/01/19 09:24:17;;;;;;;;;;;;;;;21.77;26.81;101784.63;5037080;28;19917;-72
2024/01/19 09:26:43;;;;;;;;;;;;;;;21.78;26.74;101786.31;5038914;28;19940;-72
2024/01/19 09:29:10;;;;;;;;;;;;;;;21.79;26.74;101790.72;5042864;28;19922;-72
2024/01/19 09:31:45;;;;;;;;;;;;;;;21.80;26.63;101793.28;5035295;28;19921;-72
2024/01/19 09:34:10;;;;;;;;;;;;;;;21.80;26.54;101800.56;5036086;28;19945;-72
2024/01/19 09:36:35;;;;;;;;;;;;;;;21.78;26.84;101800.69;5036919;28;19917;-73
2024/01/19 09:39:00;;;;;;;;;;;;;;;21.77;26.72;101800.88;5035515;28;19968;-73
2024/01/19 09:41:32;;;;;;;;;;;;;;;21.75;26.50;101817.31;5034697;28;19913;-73
2024/01/19 09:43:58;;;;;;;;;;;;;;;21.76;26.67;101816.28;5032673;28;20153;-73
2024/01/19 09:46:30;;;;;;;;;;;;;;;21.76;26.85;101810.03;5030206;28;20067;-73
2024/01/19 09:48:59;;;;;;;;;;;;;;;21.78;26.74;101816.09;5041085;28;19967;-72
2024/01/19 09:51:25;;;;;;;;;;;;;;;21.79;26.67;101824.06;5049110;28;19968;-73
2024/01/19 09:53:51;;;;;;;;;;;;;;;21.80;26.57;101825.78;5044256;28;19916;-74
2024/01/19 09:56:17;;;;;;;;;;;;;;;21.81;26.64;101824.75;5041584;28;19917;-74
2024/01/19 09:58:42;;;;;;;;;;;;;;;21.82;26.75;101834.56;5038527;28;19917;-72
2024/01/19 10:01:07;;;;;;;;;;;;;;;21.83;26.64;101833.53;5035259;28;19997;-72
2024/01/19 10:03:33;;;;;;;;;;;;;;;21.85;26.68;101838.81;5030691;28;19917;-72
2024/01/19 10:05:58;;;;;;;;;;;;;;;21.87;26.82;101850.31;5038370;28;19921;-73
2024/01/19 10:08:23;;;;;;;;;;;;;;;21.87;26.86;101853.00;5035962;28;19933;-72
2024/01/19 10:10:49;;;;;;;;;;;;;;;21.86;26.49;101849.47;5034612;28;20003;-74
2024/01/19 10:13:14;;;;;;;;;;;;;;;21.88;26.49;101855.56;5041298;28;19913;-75
2024/01/19 10:15:41;;;;;;;;;;;;;;;21.90;26.51;101853.53;5035439;28;20390;-74
2024/01/19 10:18:06;;;;;;;;;;;;;;;21.93;26.59;101861.31;5038270;28;19940;-75
2024/01/19 10:20:32;;;;;;;;;;;;;;;21.99;26.43;101861.66;5033036;28;19917;-74
2024/01/19 10:22:58;;;;;;;;;;;;;;;22.03;26.39;101863.03;5035700;28;20031;-75
2024/01/19 10:25:23;;;;;;;;;;;;;;;22.06;26.63;101873.53;5050887;28;20030;-74
2024/01/19 10:27:52;;;;;;;;;;;;;;;22.09;26.58;101874.06;5034675;28;20405;-74
2024/01/19 10:30:29;;;;;;;;;;;;;;;22.11;26.15;101868.47;5033953;28;19963;-74
2024/01/19 10:33:05;;;;;;;;;;;;;;;22.15;26.33;101878.00;5035743;28;20636;-74
2024/01/19 10:35:30;;;;;;;;;;;;;;;22.17;26.21;101876.81;5042131;28;19921;-74
2024/01/19 10:38:05;;;;;;;;;;;;;;;22.20;26.18;101876.47;5037519;28;19967;-74
2024/01/19 10:40:31;;;;;;;;;;;;;;;22.22;26.18;101881.75;5045513;28;19916;-74
2024/01/19 10:42:56;;;;;;;;;;;;;;;22.24;26.36;101882.41;5039554;28;19916;-73
2024/01/19 10:45:25;;;;;;;;;;;;;;;22.27;26.38;101887.50;5033981;28;20004;-73
2024/01/19 10:47:52;;;;;;;;;;;;;;;22.29;26.02;101885.44;5050682;28;19920;-74
2024/01/19 10:50:17;;;;;;;;;;;;;;;22.33;26.25;101892.22;5052448;28;19923;-73
2024/01/19 10:52:43;;;;;;;;;;;;;;;22.36;26.20;101883.78;5037402;28;19944;-73
2024/01/19 10:55:09;;;;;;;;;;;;;;;22.39;26.31;101894.28;5033000;28;19921;-74
2024/01/19 10:57:34;;;;;;;;;;;;;;;22.43;25.93;101892.09;5030760;28;20011;-74
2024/01/19 11:00:04;;;;;;;;;;;;;;;22.44;26.09;101897.34;5039894;28;20563;-73
2024/01/19 11:02:30;;;;;;;;;;;;;;;22.46;26.03;101894.44;5048336;28;19914;-73
2024/01/19 11:04:55;;;;;;;;;;;;;;;22.49;26.21;101896.81;5045365;28;19928;-73
2024/01/19 11:07:20;;;;;;;;;;;;;;;22.55;25.92;101890.72;5042268;28;19925;-73
2024/01/19 11:09:45;;;;;;;;;;;;;;;22.57;26.14;101891.41;5036611;28;19942;-73
2024/01/19 11:12:10;;;;;;;;;;;;;;;22.59;25.85;101892.06;5033905;28;19918;-72
2024/01/19 11:14:35;;;;;;;;;;;;;;;22.59;26.05;101886.66;5035161;28;19921;-74
2024/01/19 11:17:01;;;;;;;;;;;;;;;22.62;25.92;101885.47;5036650;28;19917;-73
2024/01/19 11:19:26;;;;;;;;;;;;;;;22.66;25.91;101895.81;5034774;28;19921;-74
2024/01/19 11:21:51;;;;;;;;;;;;;;;22.72;25.75;101896.97;5036440;28;19917;-74
2024/01/19 11:24:18;;;;;;;;;;;;;;;22.80;25.85;101896.13;5042179;28;19920;-74
2024/01/19 11:27:02;;;;;;;;;;;;;;;22.89;25.70;101889.69;5036546;28;19913;-74
2024/01/19 11:29:35;;;;;;;;;;;;;;;22.99;25.66;101889.56;5039175;28;19932;-74
2024/01/19 11:32:00;;;;;;;;;;;;;;;23.02;25.40;101891.91;5033162;28;19929;-74
2024/01/19 11:34:50;;;;;;;;;;;;;;;23.01;25.82;101882.94;5039582;28;19920;-73
2024/01/19 11:37:34;;;;;;;;;;;;;;;23.02;25.50;101887.31;5049232;28;19932;-73
2024/01/19 11:39:59;;;;;;;;;;;;;;;23.00;25.77;101891.25;5044096;28;20016;-75
2024/01/19 11:42:34;;;;;;;;;;;;;;;22.99;25.70;101890.41;5038310;28;19917;-73
2024/01/19 11:44:59;;;;;;;;;;;;;;;22.97;26.17;101891.59;5039487;28;19948;-74
2024/01/19 11:47:37;;;;;;;;;;;;;;;22.93;25.95;101894.63;5036312;28;19914;-73
2024/01/19 11:50:03;;;;;;;;;;;;;;;22.89;26.05;101892.41;5036120;28;19913;-73
2024/01/19 11:52:28;;;;;;;;;;;;;;;22.86;26.40;101903.63;5041195;28;19920;-76
2024/01/19 11:54:53;;;;;;;;;;;;;;;22.86;26.40;101904.44;5039549;28;19918;-75
2024/01/19 11:57:19;;;;;;;;;;;;;;;22.85;26.12;101908.19;5040193;28;19924;-75
2024/01/19 11:59:44;;;;;;;;;;;;;;;22.85;26.23;101910.03;5050394;28;19912;-75
2024/01/19 12:02:31;;;;;;;;;;;;;;;22.91;25.89;101915.66;5048707;28;19963;-75
2024/01/19 12:05:00;;;;;;;;;;;;;;;23.03;26.11;101918.03;5046088;28;20436;-74
2024/01/19 12:07:25;;;;;;;;;;;;;;;23.05;26.05;101907.84;5035254;28;19921;-74
2024/01/19 12:10:09;;;;;;;;;;;;;;;23.11;25.85;101912.59;5040448;28;20434;-72
2024/01/19 12:12:35;;;;;;;;;;;;;;;23.16;26.11;101911.06;5040961;28;19924;-74
2024/01/19 12:15:00;;;;;;;;;;;;;;;23.20;25.92;101912.41;5041703;28;19917;-73
2024/01/19 12:17:26;;;;;;;;;;;;;;;23.19;26.02;101920.69;5037509;28;19914;-74
2024/01/19 12:19:54;;;;;;;;;;;;;;;23.17;25.93;101917.31;5037978;28;19977;-72
2024/01/19 12:22:19;;;;;;;;;;;;;;;23.12;26.18;101917.84;5041378;28;19913;-74
2024/01/19 12:24:45;;;;;;;;;;;;;;;23.10;26.33;101916.31;5031655;28;19917;-73
2024/01/19 12:27:10;;;;;;;;;;;;;;;23.07;26.45;101916.69;5034519;28;19913;-74
2024/01/19 12:29:39;;;;;;;;;;;;;;;23.02;26.51;101924.44;5042226;28;20550;-73